Domov               UVHVVR             MKGP            O straneh              
ZDRAVSTVENO VARSTVO RASTLIN
  MREŽA AGROMET. POSTAJ
 ► PROGNOSTIČNA OBVESTILA
AGROMETEOROLOŠKI PODATKI -
ARSO
OBVLADOVANJE TVEGANJ ZARADI
NEUGODNIH VREMENSKIH RAZMER
  ► NARAVNE NESREČE
  ► SUŠA/MOČA
  ► NAMAKANJE
  ► ŽLED (gozdarstvo)
KARTOGRAFSKI PRIKAZI
SPLETNE POVEZAVE
PROJEKTI IN PUBLIKACIJE

AGROMETEOROLOŠKA MREŽA: VREMENSKE POSTAJE IN FENOLOŠKA OPAZOVANJA

Pregled podatkov za lokacijo Potoče, meteorološka postaja 861648

Pregled senzorjev na lokaciji

ID Ime Zadnja
vrednost
Datum
zadnje
spremembe
Tip
senzorja
4070 Temperatura 2 m (°C) 4,62 °C 11.12.2017 10:00 50YA
4071 Relativna vlaga 2 m (% RH) 100 % RH 11.12.2017 10:00 50YA
4072 Omočenost lista (U) 0 U 11.12.2017 10:00 A730WET
4073 Padavine (mm) 1,2 mm 11.12.2017 10:00 Rain-O-Matic

Pregled podatkov zadnjih 24 ur

Zap.
št.
Datum in čas Potoče
Omočenost
lista
Padavine Relativna
vlaga
2
m
Temperatura
2
m
0 11.12.2017 10:00 0 1,2 100 4,62
1 11.12.2017 09:30 0 1,8 100 4,14
2 11.12.2017 09:00 0 3,6 100 3,82
3 11.12.2017 08:30 0 3 100 3,66
4 11.12.2017 08:00 0 4,2 100 3,56
5 11.12.2017 07:30 0 4,8 100 3,22
6 11.12.2017 07:00 0 6 100 3,02
7 11.12.2017 06:30 0 7,2 100 2,77
8 11.12.2017 06:00 0 6,6 100 2,24
9 11.12.2017 05:30 0 5,8 100 2,06
10 11.12.2017 05:00 0 6,8 100 1,81
11 11.12.2017 04:30 0 5,8 100 1,7
12 11.12.2017 04:00 0 6,8 100 1,76
13 11.12.2017 03:30 0 7,2 100 1,8
14 11.12.2017 03:00 1 6,4 100 1,6
15 11.12.2017 02:30 1 7,4 100 1,8
16 11.12.2017 02:00 2 6,4 100 1,4
17 11.12.2017 01:30 3 7,2 99,99 1,47
18 11.12.2017 01:00 4 5,4 99,96 1,3
19 11.12.2017 00:30 4 5,6 99,94 1,07
20 11.12.2017 00:00 3 5,4 99,93 0,73
21 10.12.2017 23:30 3 2,4 99,81 0,53
22 10.12.2017 23:00 2 0 99,74 0,45
23 10.12.2017 22:30 2 0 99,68 0,33
24 10.12.2017 22:00 2 0 99,6 0,27
25 10.12.2017 21:30 1 0 99,59 0,25
26 10.12.2017 21:00 1 0 99,31 0,14
27 10.12.2017 20:30 0 0 99,22 0,09
28 10.12.2017 20:00 0 0 98,97 0,08
29 10.12.2017 19:30 0 0 98,64 0,06
30 10.12.2017 19:00 0 0 98,27 0,09
31 10.12.2017 18:30 0 0 97,64 0,21
32 10.12.2017 18:00 0 0 97,14 0,52
33 10.12.2017 17:30 0 0 97,16 0,41
34 10.12.2017 17:00 0 0 92,41 0,61
35 10.12.2017 16:30 0 0 78,54 1,65
36 10.12.2017 16:00 0 0 73,02 2
37 10.12.2017 15:30 0 0 76,98 1,91
38 10.12.2017 15:00 0 0 73,33 2,66
39 10.12.2017 14:30 0 0 57,53 3,57
40 10.12.2017 14:00 0 0 66,37 3,34
41 10.12.2017 13:30 0 0 72,89 3,24
42 10.12.2017 13:00 0 0 76,57 3,31
43 10.12.2017 12:30 0 0 78,54 3,09
44 10.12.2017 12:00 0 0 86,38 2,16
45 10.12.2017 11:30 0 0 92,72 1,2
46 10.12.2017 11:00 0 0 91,31 0,87
© 2011 Ministrstvo za kmetijstvo, gozdarstvo in prehrano. Vse pravice pridržane.